createdAt,value
2018-10-11T00:00:46.152Z,7.65
2018-10-11T00:01:49.205Z,7.83
2018-10-11T00:02:52.346Z,8.00
2018-10-11T00:03:56.198Z,7.70
2018-10-11T00:04:59.840Z,7.83
2018-10-11T00:06:03.576Z,7.50
2018-10-11T00:07:06.854Z,7.78
2018-10-11T00:08:10.154Z,7.67
2018-10-11T00:09:13.860Z,8.03
2018-10-11T00:10:17.636Z,8.28
2018-10-11T00:11:20.760Z,8.10
2018-10-11T00:12:24.648Z,7.70
2018-10-11T00:13:27.731Z,8.05
2018-10-11T00:14:30.751Z,8.25
2018-10-11T00:15:34.304Z,7.50
2018-10-11T00:16:37.520Z,7.90
2018-10-11T00:17:41.792Z,7.83
2018-10-11T00:18:45.926Z,8.20
2018-10-11T00:19:49.011Z,7.58
2018-10-11T00:20:52.317Z,7.85
2018-10-11T00:21:56.028Z,7.58
2018-10-11T00:22:59.945Z,8.03
2018-10-11T00:24:03.121Z,7.97
2018-10-11T00:25:06.368Z,7.83
2018-10-11T00:26:09.529Z,8.00
2018-10-11T00:27:12.611Z,7.80
2018-10-11T00:28:15.644Z,8.25
2018-10-11T00:29:19.419Z,7.65
2018-10-11T00:30:22.832Z,7.78
2018-10-11T00:31:25.879Z,8.00
2018-10-11T00:32:28.997Z,7.87
2018-10-11T00:33:33.042Z,7.08
2018-10-11T00:34:36.034Z,7.90
2018-10-11T00:35:39.266Z,7.90
2018-10-11T00:36:42.306Z,7.62
2018-10-11T00:37:45.944Z,8.05
2018-10-11T00:38:49.496Z,7.83
2018-10-11T00:39:52.698Z,8.20
2018-10-11T00:40:56.966Z,7.50
2018-10-11T00:42:00.075Z,7.62
2018-10-11T00:43:03.173Z,7.40
2018-10-11T00:44:06.752Z,7.80
2018-10-11T00:45:10.444Z,8.13
2018-10-11T00:46:13.793Z,7.30
2018-10-11T00:47:16.914Z,7.65
2018-10-11T00:48:19.925Z,7.45
2018-10-11T00:49:23.035Z,7.58
2018-10-11T00:50:26.036Z,7.80
2018-10-11T00:51:29.412Z,8.10
2018-10-11T00:52:33.808Z,8.15
2018-10-11T00:53:37.430Z,7.75
2018-10-11T00:54:41.495Z,7.72
2018-10-11T00:55:45.240Z,7.30
2018-10-11T00:56:48.299Z,8.00
2018-10-11T00:57:51.860Z,7.67
2018-10-11T00:58:54.890Z,8.15
2018-10-11T00:59:58.438Z,8.25
2018-10-11T01:01:01.484Z,7.92
2018-10-11T01:02:05.227Z,7.60
2018-10-11T01:03:08.305Z,8.15
2018-10-11T01:04:12.083Z,8.43
2018-10-11T01:05:15.589Z,7.72
2018-10-11T01:06:19.136Z,8.30
2018-10-11T01:07:22.171Z,7.70
2018-10-11T01:08:25.191Z,7.37
2018-10-11T01:09:28.295Z,7.80
2018-10-11T01:10:31.876Z,8.15
2018-10-11T01:11:35.091Z,8.28
2018-10-11T01:12:38.146Z,7.47
2018-10-11T01:13:41.375Z,7.62
2018-10-11T01:14:44.880Z,7.58
2018-10-11T01:15:47.882Z,7.72
2018-10-11T01:16:50.958Z,8.10
2018-10-11T01:17:55.084Z,8.13
2018-10-11T01:18:59.376Z,7.95
2018-10-11T01:20:02.492Z,7.78
2018-10-11T01:21:05.954Z,7.67
2018-10-11T01:22:09.047Z,7.83
2018-10-11T01:23:12.219Z,8.33
2018-10-11T01:24:16.353Z,8.00
2018-10-11T01:25:19.492Z,8.15
2018-10-11T01:26:23.516Z,8.50
2018-10-11T01:27:26.722Z,8.00
2018-10-11T01:28:29.804Z,7.60
2018-10-11T01:29:32.982Z,7.60
2018-10-11T01:30:35.995Z,8.25
2018-10-11T01:31:39.550Z,8.20
2018-10-11T01:32:42.593Z,7.78
2018-10-11T01:33:45.915Z,8.23
2018-10-11T01:34:48.956Z,7.72
2018-10-11T01:35:52.567Z,7.72
2018-10-11T01:36:55.703Z,7.80
2018-10-11T01:37:59.566Z,7.60
2018-10-11T01:39:02.868Z,8.03
2018-10-11T01:40:08.455Z,8.23
2018-10-11T01:41:11.864Z,8.00
2018-10-11T01:42:14.871Z,8.23
2018-10-11T01:43:17.956Z,7.83
2018-10-11T01:44:21.036Z,7.90
2018-10-11T01:45:24.178Z,8.08
2018-10-11T01:46:27.182Z,7.67
2018-10-11T01:47:30.224Z,7.78
2018-10-11T01:48:33.255Z,7.67
2018-10-11T01:49:36.333Z,7.83
2018-10-11T01:50:39.354Z,7.83
2018-10-11T01:51:42.497Z,7.87
2018-10-11T01:52:45.480Z,8.48
2018-10-11T01:53:50.858Z,8.15
2018-10-11T01:54:54.492Z,8.35
2018-10-11T01:55:58.140Z,7.75
2018-10-11T01:57:01.688Z,8.43
2018-10-11T01:58:04.671Z,8.00
2018-10-11T01:59:07.722Z,7.65
2018-10-11T02:00:10.715Z,7.78
2018-10-11T02:01:13.748Z,7.95
2018-10-11T02:02:16.807Z,8.00
2018-10-11T02:03:19.895Z,7.72
2018-10-11T02:04:23.120Z,7.83
2018-10-11T02:05:26.927Z,8.38
2018-10-11T02:06:30.065Z,7.62
2018-10-11T02:07:33.053Z,8.03
2018-10-11T02:08:36.208Z,8.33
2018-10-11T02:09:39.427Z,7.58
2018-10-11T02:10:42.352Z,7.80
2018-10-11T02:11:45.415Z,8.13
2018-10-11T02:12:48.952Z,7.80
2018-10-11T02:13:52.052Z,7.62
2018-10-11T02:14:55.063Z,7.47
2018-10-11T02:15:59.185Z,8.40
2018-10-11T02:17:02.186Z,8.00
2018-10-11T02:18:05.272Z,7.75
2018-10-11T02:19:08.347Z,8.40
2018-10-11T02:20:11.671Z,8.13
2018-10-11T02:21:14.767Z,7.60
2018-10-11T02:22:18.519Z,8.53
2018-10-11T02:23:21.583Z,8.23
2018-10-11T02:24:24.599Z,8.03
2018-10-11T02:25:28.268Z,8.13
2018-10-11T02:26:31.988Z,7.47
2018-10-11T02:27:35.062Z,7.62
2018-10-11T02:28:39.123Z,8.23
2018-10-11T02:29:42.206Z,8.03
2018-10-11T02:30:45.589Z,8.15
2018-10-11T02:31:49.376Z,8.35
2018-10-11T02:32:52.930Z,7.95
2018-10-11T02:33:57.195Z,7.92
2018-10-11T02:35:01.028Z,8.35
2018-10-11T02:36:04.559Z,7.67
2018-10-11T02:37:07.608Z,7.83
2018-10-11T02:38:11.332Z,7.97
2018-10-11T02:39:15.466Z,7.80
2018-10-11T02:40:19.070Z,8.05
2018-10-11T02:41:22.360Z,8.00
2018-10-11T02:42:26.187Z,7.78
2018-10-11T02:43:29.386Z,7.37
2018-10-11T02:44:32.592Z,7.95
2018-10-11T02:45:35.637Z,8.10
2018-10-11T02:46:38.868Z,8.48
2018-10-11T02:47:42.023Z,7.83
2018-10-11T02:48:45.352Z,7.37
2018-10-11T02:49:48.900Z,8.28
2018-10-11T02:50:54.126Z,8.23
2018-10-11T02:51:59.123Z,7.87
2018-10-11T02:53:02.258Z,8.40
2018-10-11T02:54:06.063Z,7.65
2018-10-11T02:55:09.158Z,7.92
2018-10-11T02:56:13.706Z,8.25
2018-10-11T02:59:36.540Z,7.80
2018-10-11T03:00:40.143Z,7.70
2018-10-11T03:01:44.651Z,8.15
2018-10-11T03:02:49.064Z,8.50
2018-10-11T03:03:56.723Z,8.10
2018-10-11T03:05:00.274Z,8.15
2018-10-11T03:06:03.661Z,8.10
2018-10-11T03:07:08.419Z,8.40
2018-10-11T03:08:15.460Z,8.10
2018-10-11T03:09:19.108Z,8.08
2018-10-11T03:10:23.319Z,9.20
2018-10-11T03:11:26.350Z,7.70
2018-10-11T03:12:29.747Z,7.87
2018-10-11T03:13:33.452Z,7.87
2018-10-11T03:14:37.024Z,8.15
2018-10-11T03:15:40.647Z,7.67
2018-10-11T03:16:44.061Z,7.72
2018-10-11T03:17:47.643Z,8.88
2018-10-11T03:18:50.738Z,7.58
2018-10-11T03:19:54.346Z,8.03
2018-10-11T03:20:57.933Z,7.90
2018-10-11T03:22:01.386Z,7.75
2018-10-11T03:23:04.629Z,8.30
2018-10-11T03:24:07.708Z,8.40
2018-10-11T03:25:10.680Z,8.18
2018-10-11T03:26:13.707Z,7.70
2018-10-11T03:27:17.358Z,7.62
2018-10-11T03:28:20.463Z,8.08
2018-10-11T03:29:23.436Z,8.30
2018-10-11T03:30:26.503Z,8.15
2018-10-11T03:31:29.531Z,8.38
2018-10-11T03:32:33.229Z,8.20
2018-10-11T03:33:37.135Z,8.35
2018-10-11T03:34:40.201Z,8.38
2018-10-11T03:35:44.050Z,7.62
2018-10-11T03:36:47.774Z,7.70
2018-10-11T03:37:50.770Z,8.25
2018-10-11T03:38:54.175Z,7.87
2018-10-11T03:39:57.254Z,7.83
2018-10-11T03:41:00.307Z,7.53
2018-10-11T03:42:04.149Z,7.83
2018-10-11T03:43:07.213Z,8.05
2018-10-11T03:44:10.316Z,8.10
2018-10-11T03:45:13.344Z,7.75
2018-10-11T03:46:16.436Z,8.50
2018-10-11T03:47:19.447Z,8.23
2018-10-11T03:48:22.818Z,8.58
2018-10-11T03:49:26.623Z,8.13
2018-10-11T03:50:30.371Z,8.08
2018-10-11T03:51:34.035Z,9.08
2018-10-11T03:52:37.131Z,8.33
2018-10-11T03:53:40.167Z,8.38
2018-10-11T03:54:43.368Z,7.72
2018-10-11T03:55:46.421Z,8.53
2018-10-11T03:56:49.599Z,8.30
2018-10-11T03:57:52.719Z,8.90
2018-10-11T03:58:56.564Z,8.48
2018-10-11T04:00:00.004Z,8.20
2018-10-11T04:01:03.051Z,8.10
2018-10-11T04:02:06.788Z,8.28
2018-10-11T04:03:09.896Z,8.25
2018-10-11T04:04:13.031Z,8.25
2018-10-11T04:05:16.059Z,8.25
2018-10-11T04:06:19.113Z,8.38
2018-10-11T04:07:22.145Z,7.85
2018-10-11T04:08:25.513Z,8.05
2018-10-11T04:09:29.639Z,8.33
2018-10-11T04:10:33.664Z,8.38
2018-10-11T04:11:36.770Z,8.15
2018-10-11T04:12:39.881Z,8.80
2018-10-11T04:13:43.339Z,8.20
2018-10-11T04:14:46.409Z,8.33
2018-10-11T04:15:49.492Z,8.98
2018-10-11T04:16:52.512Z,8.53
2018-10-11T04:17:55.663Z,8.68
2018-10-11T04:18:59.455Z,8.83
2018-10-11T04:20:02.537Z,8.68
2018-10-11T04:21:06.616Z,8.65
2018-10-11T04:22:10.292Z,8.33
2018-10-11T04:23:18.194Z,8.33
2018-10-11T04:24:21.527Z,8.35
2018-10-11T04:25:25.224Z,8.63
2018-10-11T04:26:28.374Z,8.33
2018-10-11T04:27:31.466Z,8.05
2018-10-11T04:28:35.107Z,8.53
2018-10-11T04:29:38.910Z,8.43
2018-10-11T04:30:42.187Z,8.90
2018-10-11T04:31:46.160Z,8.03
2018-10-11T04:32:49.267Z,8.75
2018-10-11T04:33:52.493Z,8.78
2018-10-11T04:34:55.594Z,8.28
2018-10-11T04:35:59.455Z,8.33
2018-10-11T04:37:03.165Z,8.45
2018-10-11T04:38:08.563Z,8.60
2018-10-11T04:39:12.109Z,8.75
2018-10-11T04:40:15.288Z,8.83
2018-10-11T04:41:18.639Z,8.83
2018-10-11T04:42:22.591Z,8.80
2018-10-11T04:43:26.125Z,8.63
2018-10-11T04:44:33.496Z,8.13
2018-10-11T04:45:36.592Z,8.65
2018-10-11T04:46:39.735Z,8.58
2018-10-11T04:47:43.279Z,8.53
2018-10-11T04:48:48.542Z,8.65
2018-10-11T04:49:51.673Z,8.70
2018-10-11T04:50:54.741Z,8.43
2018-10-11T04:51:58.358Z,8.35
2018-10-11T04:53:01.916Z,7.92
2018-10-11T04:54:05.003Z,8.85
2018-10-11T04:55:09.279Z,8.65
2018-10-11T04:56:12.494Z,7.72
2018-10-11T04:57:15.561Z,8.98
2018-10-11T04:58:19.088Z,9.10
2018-10-11T04:59:22.243Z,9.23
2018-10-11T05:00:26.847Z,8.60
2018-10-11T05:01:30.562Z,8.28
2018-10-11T05:02:34.479Z,9.00
2018-10-11T05:03:38.399Z,9.25
2018-10-11T05:04:41.711Z,8.15
2018-10-11T05:05:44.836Z,8.83
2018-10-11T05:06:48.605Z,8.55
2018-10-11T05:07:51.755Z,8.13
2018-10-11T05:08:55.383Z,8.45
2018-10-11T05:09:58.424Z,8.78
2018-10-11T05:11:01.929Z,8.23
2018-10-11T05:12:05.600Z,8.45
2018-10-11T05:13:09.189Z,8.95
2018-10-11T05:14:14.362Z,8.30
2018-10-11T05:15:18.384Z,8.23
2018-10-11T05:16:21.366Z,8.80
2018-10-11T05:17:24.590Z,9.33
2018-10-11T05:18:27.620Z,8.95
2018-10-11T05:19:30.744Z,8.75
2018-10-11T05:20:33.863Z,8.30
2018-10-11T05:21:36.991Z,9.18
2018-10-11T05:22:39.918Z,8.98
2018-10-11T05:23:44.154Z,8.90
2018-10-11T05:24:47.200Z,9.10
2018-10-11T05:25:50.322Z,8.45
2018-10-11T05:26:53.773Z,9.20
2018-10-11T05:27:56.865Z,8.60
2018-10-11T05:29:00.451Z,8.58
2018-10-11T05:30:03.626Z,9.00
2018-10-11T05:31:06.696Z,9.18
2018-10-11T05:32:09.838Z,9.88
2018-10-11T05:33:13.904Z,8.83
2018-10-11T05:34:17.023Z,8.63
2018-10-11T05:35:20.062Z,8.70
2018-10-11T05:36:23.885Z,8.30
2018-10-11T05:37:28.016Z,9.15
2018-10-11T05:38:31.571Z,8.78
2018-10-11T05:39:35.309Z,9.43
2018-10-11T05:40:40.459Z,8.60
2018-10-11T05:41:44.408Z,8.35
2018-10-11T05:42:47.493Z,9.38
2018-10-11T05:43:50.544Z,9.33
2018-10-11T05:45:01.272Z,9.23
2018-10-11T05:46:06.477Z,9.23
2018-10-11T05:47:10.799Z,8.73
2018-10-11T05:48:13.877Z,8.90
2018-10-11T05:49:19.643Z,9.13
2018-10-11T05:50:23.026Z,9.08
2018-10-11T05:51:26.524Z,9.48
2018-10-11T05:52:29.628Z,8.80
2018-10-11T05:53:32.668Z,8.40
2018-10-11T05:54:35.791Z,9.00
2018-10-11T05:55:38.884Z,8.35
2018-10-11T05:56:42.993Z,8.90
2018-10-11T05:57:45.986Z,9.00
2018-10-11T05:58:50.749Z,8.78
2018-10-11T05:59:53.827Z,8.95
2018-10-11T06:00:57.050Z,7.85
2018-10-11T06:02:00.291Z,8.78
2018-10-11T06:03:05.077Z,8.80
2018-10-11T06:04:10.763Z,8.85
2018-10-11T06:05:14.779Z,8.98
2018-10-11T06:06:17.923Z,8.95
2018-10-11T06:07:21.025Z,8.65
2018-10-11T06:08:24.264Z,9.45
2018-10-11T06:09:27.996Z,8.40
2018-10-11T06:10:35.553Z,8.78
2018-10-11T06:11:39.671Z,9.08
2018-10-11T06:12:43.330Z,8.55
2018-10-11T06:13:46.952Z,8.40
2018-10-11T06:14:51.416Z,9.03
2018-10-11T06:15:54.452Z,8.55
2018-10-11T06:16:58.518Z,8.85
2018-10-11T06:18:01.784Z,9.18
2018-10-11T06:19:04.900Z,9.03
2018-10-11T06:20:07.975Z,9.38
2018-10-11T06:21:12.055Z,9.20
2018-10-11T06:22:15.968Z,8.88
2018-10-11T06:23:21.296Z,9.45
2018-10-11T06:24:25.095Z,8.88
2018-10-11T06:25:28.301Z,8.93
2018-10-11T06:26:31.435Z,9.48
2018-10-11T06:27:34.832Z,8.73
2018-10-11T06:28:38.548Z,8.73
2018-10-11T06:29:42.001Z,8.35
2018-10-11T06:30:45.050Z,9.00
2018-10-11T06:31:48.515Z,8.95
2018-10-11T06:32:51.580Z,8.60
2018-10-11T06:33:54.799Z,9.23
2018-10-11T06:34:57.916Z,9.15
2018-10-11T06:36:03.991Z,9.20
2018-10-11T06:37:08.174Z,8.90
2018-10-11T06:38:12.181Z,9.05
2018-10-11T06:39:15.665Z,8.88
2018-10-11T06:40:18.738Z,9.53
2018-10-11T06:41:23.020Z,8.78
2018-10-11T06:42:26.429Z,9.03
2018-10-11T06:43:30.170Z,8.95
2018-10-11T06:44:33.848Z,8.80
2018-10-11T06:45:38.160Z,8.68
2018-10-11T06:46:42.357Z,9.23
2018-10-11T06:47:48.231Z,8.58
2018-10-11T06:48:52.557Z,9.65
2018-10-11T06:49:55.740Z,9.03
2018-10-11T06:50:58.733Z,9.40
2018-10-11T06:52:01.916Z,8.93
2018-10-11T06:53:05.134Z,9.83
2018-10-11T06:54:08.957Z,9.45
2018-10-11T06:55:12.722Z,8.85
2018-10-11T06:56:16.774Z,8.70
2018-10-11T06:57:20.187Z,9.68
2018-10-11T06:58:23.283Z,9.55
2018-10-11T06:59:27.217Z,9.38
2018-10-11T07:00:30.312Z,9.28
2018-10-11T07:01:33.429Z,9.70
2018-10-11T07:02:36.562Z,9.70
2018-10-11T07:03:40.636Z,10.10
2018-10-11T07:04:43.985Z,9.13
2018-10-11T07:05:48.048Z,9.48
2018-10-11T07:06:51.769Z,9.28
2018-10-11T07:07:54.896Z,9.13
2018-10-11T07:08:57.979Z,9.70
2018-10-11T07:10:01.075Z,9.88
2018-10-11T07:11:06.239Z,9.08
2018-10-11T07:12:09.503Z,9.73
2018-10-11T07:13:12.578Z,9.55
2018-10-11T07:14:16.640Z,9.35
2018-10-11T07:15:20.487Z,10.00
2018-10-11T07:16:23.604Z,9.78
2018-10-11T07:17:26.870Z,9.90
2018-10-11T07:18:29.916Z,9.53
2018-10-11T07:19:33.347Z,9.18
2018-10-11T07:20:36.508Z,9.80
2018-10-11T07:21:39.679Z,9.68
2018-10-11T07:22:42.939Z,8.85
2018-10-11T07:23:46.297Z,9.28
2018-10-11T07:24:49.856Z,9.28
2018-10-11T07:25:53.026Z,9.48
2018-10-11T07:26:56.416Z,9.58
2018-10-11T07:28:01.512Z,9.53
2018-10-11T07:29:04.579Z,9.90
2018-10-11T07:30:08.130Z,9.50
2018-10-11T07:31:11.314Z,9.10
2018-10-11T07:32:14.350Z,9.88
2018-10-11T07:33:17.554Z,10.13
2018-10-11T07:34:21.168Z,9.75
2018-10-11T07:35:24.573Z,10.28
2018-10-11T07:36:28.801Z,9.90
2018-10-11T07:37:31.966Z,9.85
2018-10-11T07:38:35.262Z,9.35
2018-10-11T07:39:38.642Z,9.15
2018-10-11T07:40:41.906Z,9.55
2018-10-11T07:41:44.970Z,9.13
2018-10-11T07:42:48.266Z,9.18
2018-10-11T07:43:51.343Z,9.73
2018-10-11T07:44:54.394Z,9.18
2018-10-11T07:45:57.947Z,9.80
2018-10-11T07:47:01.047Z,9.20
2018-10-11T07:48:04.171Z,9.85
2018-10-11T07:49:09.183Z,9.25
2018-10-11T07:50:13.429Z,9.23
2018-10-11T07:51:17.701Z,9.63
2018-10-11T07:52:21.262Z,8.78
2018-10-11T07:53:27.799Z,8.85
2018-10-11T07:54:40.590Z,9.40
2018-10-11T07:55:43.810Z,9.15
2018-10-11T07:56:49.287Z,10.08
2018-10-11T07:57:54.303Z,9.60
2018-10-11T07:58:58.129Z,9.30
2018-10-11T08:00:04.142Z,9.10
2018-10-11T08:01:07.219Z,8.50
2018-10-11T08:02:13.124Z,9.40
2018-10-11T08:03:18.081Z,9.25
2018-10-11T08:04:23.214Z,8.60
2018-10-11T08:05:26.243Z,8.70
2018-10-11T08:06:30.044Z,9.20
2018-10-11T08:07:33.473Z,9.53
2018-10-11T08:08:37.608Z,8.60
2018-10-11T08:09:40.731Z,9.55
2018-10-11T08:10:44.005Z,9.08
2018-10-11T08:11:47.388Z,9.53
2018-10-11T08:12:50.356Z,8.60
2018-10-11T08:13:53.482Z,8.95
2018-10-11T08:14:56.544Z,9.28
2018-10-11T08:15:59.718Z,9.85
2018-10-11T08:17:02.962Z,9.80
2018-10-11T08:18:06.476Z,9.50
2018-10-11T08:19:09.899Z,9.50
2018-10-11T08:20:12.829Z,9.78
2018-10-11T08:21:15.931Z,10.82
2018-10-11T08:22:19.152Z,10.35
2018-10-11T08:23:22.335Z,10.10
2018-10-11T08:24:25.495Z,10.13
2018-10-11T08:25:28.905Z,9.80
2018-10-11T08:26:31.902Z,9.25
2018-10-11T08:27:34.838Z,9.03
2018-10-11T08:28:38.084Z,9.93
2018-10-11T08:29:41.144Z,9.68
2018-10-11T08:30:44.291Z,9.78
2018-10-11T08:31:47.444Z,9.35
2018-10-11T08:32:50.647Z,10.00
2018-10-11T08:33:53.707Z,9.43
2018-10-11T08:34:56.842Z,9.35
2018-10-11T08:36:00.024Z,9.45
2018-10-11T08:37:03.119Z,9.38
2018-10-11T08:38:06.684Z,9.35
2018-10-11T08:39:11.123Z,9.70
2018-10-11T08:40:14.281Z,9.50
2018-10-11T08:41:17.439Z,9.68
2018-10-11T08:42:20.592Z,9.35
2018-10-11T08:43:23.781Z,9.73
2018-10-11T08:44:26.953Z,9.08
2018-10-11T08:45:30.079Z,9.68
2018-10-11T08:46:33.076Z,9.65
2018-10-11T08:47:36.161Z,9.48
2018-10-11T08:48:39.431Z,9.55
2018-10-11T08:49:42.493Z,9.23
2018-10-11T08:50:45.566Z,8.98
2018-10-11T08:51:48.558Z,8.90
2018-10-11T08:52:51.667Z,9.60
2018-10-11T08:53:57.581Z,9.55
2018-10-11T08:55:00.634Z,10.10
2018-10-11T08:56:03.813Z,9.28
2018-10-11T08:57:06.896Z,10.55
2018-10-11T08:58:09.935Z,9.55
2018-10-11T08:59:13.082Z,9.50
2018-10-11T09:00:16.124Z,9.88
2018-10-11T09:01:19.311Z,9.38
2018-10-11T09:02:22.353Z,9.68
2018-10-11T09:03:25.398Z,9.85
2018-10-11T09:04:28.391Z,10.13
2018-10-11T09:05:31.493Z,9.78
2018-10-11T09:06:34.548Z,10.60
2018-10-11T09:07:37.615Z,9.83
2018-10-11T09:08:40.682Z,10.48
2018-10-11T09:09:44.572Z,10.28
2018-10-11T09:10:47.676Z,9.63
2018-10-11T09:11:50.726Z,10.40
2018-10-11T09:12:53.878Z,9.95
2018-10-11T09:13:56.976Z,10.80
2018-10-11T09:15:00.338Z,10.98
2018-10-11T09:16:03.412Z,10.53
2018-10-11T09:17:06.518Z,10.70
2018-10-11T09:18:09.756Z,9.75
2018-10-11T09:19:13.495Z,10.43
2018-10-11T09:20:16.595Z,10.35
2018-10-11T09:21:19.777Z,9.85
2018-10-11T09:22:22.851Z,10.40
2018-10-11T09:23:26.061Z,10.05
2018-10-11T09:24:28.959Z,10.50
2018-10-11T09:25:32.103Z,10.45
2018-10-11T09:26:35.175Z,10.63
2018-10-11T09:27:38.491Z,10.40
2018-10-11T09:28:41.625Z,10.40
2018-10-11T09:29:44.662Z,10.48
2018-10-11T09:30:47.816Z,11.70
2018-10-11T09:31:58.877Z,10.72
2018-10-11T09:33:02.059Z,11.70
2018-10-11T09:34:05.151Z,10.90
2018-10-11T09:35:08.146Z,11.12
2018-10-11T09:36:11.288Z,10.50
2018-10-11T09:37:14.464Z,11.15
2018-10-11T09:38:22.986Z,11.03
2018-10-11T09:39:32.601Z,11.78
2018-10-11T09:40:35.830Z,10.90
2018-10-11T09:41:42.554Z,10.78
2018-10-11T09:42:45.912Z,11.48
2018-10-11T09:43:51.461Z,11.75
2018-10-11T09:44:54.643Z,10.63
2018-10-11T09:45:57.701Z,10.58
2018-10-11T09:47:00.956Z,10.65
2018-10-11T09:48:04.108Z,10.98
2018-10-11T09:49:07.259Z,10.48
2018-10-11T09:50:10.355Z,10.15
2018-10-11T09:51:13.659Z,10.82
2018-10-11T09:52:16.767Z,11.08
2018-10-11T09:53:19.865Z,10.70
2018-10-11T09:54:22.997Z,11.00
2018-10-11T09:55:26.203Z,11.00
2018-10-11T09:57:33.046Z,10.68
2018-10-11T09:58:36.208Z,10.63
2018-10-11T09:59:39.249Z,10.65
2018-10-11T10:00:48.003Z,11.08
2018-10-11T10:01:51.128Z,11.15
2018-10-11T10:02:54.402Z,11.18
2018-10-11T10:03:57.560Z,10.95
2018-10-11T10:05:02.109Z,10.70
2018-10-11T10:06:05.187Z,10.50
2018-10-11T10:07:09.107Z,10.38
2018-10-11T10:08:12.262Z,10.45
2018-10-11T10:09:15.328Z,10.65
2018-10-11T10:10:18.419Z,11.33
2018-10-11T10:11:21.490Z,14.38
2018-10-11T10:12:24.667Z,13.50
2018-10-11T10:13:27.733Z,12.88
2018-10-11T10:14:30.947Z,13.25
2018-10-11T10:15:34.201Z,11.95
2018-10-11T10:16:37.259Z,12.47
2018-10-11T10:17:40.369Z,12.37
2018-10-11T10:18:43.628Z,11.65
2018-10-11T10:19:46.839Z,11.50
2018-10-11T10:20:50.101Z,11.55
2018-10-11T10:21:53.878Z,10.55
2018-10-11T10:23:02.340Z,11.10
2018-10-11T10:24:05.442Z,10.75
2018-10-11T10:25:08.500Z,10.28
2018-10-11T10:26:11.655Z,9.85
2018-10-11T10:27:14.875Z,10.65
2018-10-11T10:28:17.928Z,11.05
2018-10-11T10:29:21.239Z,11.68
2018-10-11T10:30:29.863Z,10.68
2018-10-11T10:31:33.054Z,11.33
2018-10-11T10:32:36.295Z,11.57
2018-10-11T10:33:39.519Z,11.53
2018-10-11T10:34:42.607Z,11.65
2018-10-11T10:35:45.629Z,11.18
2018-10-11T10:36:48.814Z,11.70
2018-10-11T10:37:51.952Z,11.65
2018-10-11T10:38:55.203Z,11.60
2018-10-11T10:39:58.437Z,10.98
2018-10-11T10:41:01.514Z,11.75
2018-10-11T10:42:04.683Z,11.73
2018-10-11T10:43:07.848Z,11.63
2018-10-11T10:44:10.883Z,12.53
2018-10-11T10:45:13.952Z,13.30
2018-10-11T10:46:17.039Z,12.23
2018-10-11T10:47:20.163Z,12.43
2018-10-11T10:48:23.143Z,12.50
2018-10-11T10:49:26.134Z,12.58
2018-10-11T10:50:29.140Z,14.93
2018-10-11T10:51:32.380Z,12.23
2018-10-11T10:52:35.359Z,12.63
2018-10-11T10:53:38.349Z,12.78
2018-10-11T10:54:41.319Z,12.23
2018-10-11T10:55:44.308Z,12.13
2018-10-11T10:56:47.336Z,12.47
2018-10-11T10:57:50.317Z,12.58
2018-10-11T10:58:54.046Z,12.18
2018-10-11T10:59:57.064Z,12.07
2018-10-11T11:01:00.111Z,12.00
2018-10-11T11:02:03.114Z,11.85
2018-10-11T11:03:06.345Z,12.20
2018-10-11T11:04:09.348Z,12.00
2018-10-11T11:05:12.315Z,12.15
2018-10-11T11:06:15.304Z,12.50
2018-10-11T11:07:18.340Z,12.65
2018-10-11T11:08:21.342Z,11.65
2018-10-11T11:09:24.423Z,12.10
2018-10-11T11:10:27.475Z,11.93
2018-10-11T11:11:30.482Z,11.53
2018-10-11T11:12:33.442Z,13.05
2018-10-11T11:13:36.469Z,11.70
2018-10-11T11:14:39.529Z,11.55
2018-10-11T11:15:42.536Z,11.43
2018-10-11T11:16:45.737Z,12.37
2018-10-11T11:17:48.732Z,12.23
2018-10-11T11:18:51.798Z,11.43
2018-10-11T11:19:54.747Z,12.13
2018-10-11T11:20:57.739Z,12.35
2018-10-11T11:22:00.755Z,11.45
2018-10-11T11:23:03.796Z,11.08
2018-10-11T11:24:12.287Z,11.65
2018-10-11T11:25:15.998Z,11.38
2018-10-11T11:26:19.303Z,11.88
2018-10-11T11:27:22.282Z,11.97
2018-10-11T11:28:25.295Z,12.68
2018-10-11T11:29:28.388Z,12.07
2018-10-11T11:30:31.432Z,12.20
2018-10-11T11:31:34.526Z,11.95
2018-10-11T11:32:37.677Z,12.28
2018-10-11T11:33:40.655Z,12.23
2018-10-11T11:34:43.688Z,12.73
2018-10-11T11:35:46.707Z,11.10
2018-10-11T11:36:49.686Z,12.50
2018-10-11T11:37:52.701Z,11.73
2018-10-11T11:38:55.690Z,11.60
2018-10-11T11:40:01.509Z,12.00
2018-10-11T11:41:05.743Z,11.75
2018-10-11T11:42:10.547Z,12.20
2018-10-11T11:43:35.308Z,12.18
2018-10-11T11:44:42.770Z,11.83
2018-10-11T11:45:51.678Z,12.03
2018-10-11T11:47:02.014Z,12.15
2018-10-11T11:48:15.448Z,12.40
2018-10-11T11:49:33.712Z,11.78
2018-10-11T11:50:42.090Z,11.70
2018-10-11T11:51:46.874Z,12.05
2018-10-11T11:52:49.926Z,12.95
2018-10-11T11:53:52.899Z,12.05
2018-10-11T11:54:55.897Z,11.65
2018-10-11T11:55:58.945Z,12.07
2018-10-11T11:57:01.926Z,11.88
2018-10-11T11:58:05.088Z,12.30
2018-10-11T11:59:08.102Z,12.60
2018-10-11T12:00:11.050Z,11.65
2018-10-11T12:01:14.056Z,11.88
2018-10-11T12:02:17.090Z,11.65
2018-10-11T12:03:20.071Z,11.90
2018-10-11T12:04:23.072Z,11.95
2018-10-11T12:05:26.080Z,11.85
2018-10-11T12:06:29.079Z,12.13
2018-10-11T12:07:32.108Z,12.68
2018-10-11T12:08:36.327Z,12.15
2018-10-11T12:09:40.037Z,12.13
2018-10-11T12:10:44.353Z,11.97
2018-10-11T12:11:48.459Z,11.73
2018-10-11T12:12:54.860Z,11.45
2018-10-11T12:13:59.511Z,12.23
2018-10-11T12:15:03.606Z,12.10
2018-10-11T12:16:08.540Z,11.85
2018-10-11T12:17:11.581Z,12.98
2018-10-11T12:18:14.708Z,12.10
2018-10-11T12:19:19.175Z,12.15
2018-10-11T12:20:24.601Z,12.45
2018-10-11T12:21:29.561Z,12.43
2018-10-11T12:22:34.558Z,11.95
2018-10-11T12:23:39.175Z,11.80
2018-10-11T12:24:43.625Z,12.00
2018-10-11T12:25:46.557Z,12.15
2018-10-11T12:26:49.524Z,11.97
2018-10-11T12:27:52.704Z,11.93
2018-10-11T12:28:55.697Z,12.63
2018-10-11T12:29:58.657Z,11.65
2018-10-11T12:31:01.692Z,12.68
2018-10-11T12:32:04.729Z,12.80
2018-10-11T12:33:07.771Z,12.82
2018-10-11T12:34:10.786Z,12.50
2018-10-11T12:35:14.207Z,12.68
2018-10-11T12:36:17.205Z,12.75
2018-10-11T12:37:20.180Z,12.10
2018-10-11T12:38:23.167Z,13.25
2018-10-11T12:39:26.170Z,12.60
2018-10-11T12:40:29.167Z,12.20
2018-10-11T12:41:32.131Z,12.63
2018-10-11T12:42:35.175Z,12.70
2018-10-11T12:43:38.187Z,13.15
2018-10-11T12:44:41.176Z,12.47
2018-10-11T12:45:44.213Z,13.32
2018-10-11T12:46:47.211Z,14.28
2018-10-11T12:47:50.186Z,14.40
2018-10-11T12:48:53.192Z,13.28
2018-10-11T12:49:56.569Z,15.13
2018-10-11T12:50:59.528Z,13.20
2018-10-11T12:52:02.578Z,14.10
2018-10-11T12:53:06.450Z,13.43
2018-10-11T12:54:09.444Z,13.58
2018-10-11T12:55:12.487Z,12.90
2018-10-11T12:56:15.453Z,12.90
2018-10-11T12:57:20.845Z,12.33
2018-10-11T12:58:21.451Z,12.03
2018-10-11T12:59:24.415Z,12.63
2018-10-11T13:00:27.462Z,12.78
2018-10-11T13:01:30.455Z,12.40
2018-10-11T13:02:33.496Z,12.70
2018-10-11T13:03:36.455Z,12.35
2018-10-11T13:04:39.451Z,12.23
2018-10-11T13:05:42.459Z,12.28
2018-10-11T13:06:45.622Z,12.60
2018-10-11T13:07:48.631Z,12.35
2018-10-11T13:08:51.624Z,12.33
2018-10-11T13:09:54.600Z,12.88
2018-10-11T13:10:57.598Z,13.43
2018-10-11T13:12:00.641Z,12.03
2018-10-11T13:13:03.643Z,13.03
2018-10-11T13:14:06.600Z,12.68
2018-10-11T13:15:09.592Z,13.03
2018-10-11T13:16:12.583Z,12.35
2018-10-11T13:17:15.599Z,12.80
2018-10-11T13:18:18.580Z,12.65
2018-10-11T13:19:21.596Z,11.73
2018-10-11T13:20:24.570Z,12.85
2018-10-11T13:21:27.574Z,11.93
2018-10-11T13:22:30.558Z,12.23
2018-10-11T13:23:33.575Z,12.07
2018-10-11T13:24:40.591Z,12.37
2018-10-11T13:25:39.750Z,13.20
2018-10-11T13:26:42.788Z,12.20
2018-10-11T13:27:45.789Z,12.37
2018-10-11T13:28:48.852Z,12.10
2018-10-11T13:29:51.752Z,12.33
2018-10-11T13:30:54.711Z,12.37
2018-10-11T13:31:57.679Z,13.58
2018-10-11T13:33:00.647Z,12.58
2018-10-11T13:34:03.611Z,13.55
2018-10-11T13:35:06.920Z,13.20
2018-10-11T13:36:09.851Z,12.25
2018-10-11T13:37:12.810Z,13.85
2018-10-11T13:38:15.829Z,13.22
2018-10-11T13:39:18.825Z,12.78
2018-10-11T13:40:21.828Z,12.70
2018-10-11T13:41:24.961Z,13.53
2018-10-11T13:42:27.844Z,13.70
2018-10-11T13:43:30.867Z,13.35
2018-10-11T13:44:33.888Z,13.30
2018-10-11T13:45:36.883Z,12.85
2018-10-11T13:46:39.842Z,12.88
2018-10-11T13:47:45.295Z,12.95
2018-10-11T13:48:45.792Z,13.28
2018-10-11T13:49:48.767Z,12.37
2018-10-11T13:50:51.998Z,12.75
2018-10-11T13:51:54.964Z,12.03
2018-10-11T13:52:58.059Z,11.90
2018-10-11T13:54:00.997Z,11.75
2018-10-11T13:55:08.122Z,12.28
2018-10-11T13:56:07.111Z,12.07
2018-10-11T13:57:10.087Z,11.80
2018-10-11T13:58:13.060Z,12.03
2018-10-11T13:59:16.687Z,12.28
2018-10-11T14:00:19.658Z,11.95